LiveATC.Net - Listen to live air traffic control over the Internet!


ICAO: URMT  IATA: STW   Airport: Stavropol Shpakovskoye Airport
City: Stavropol
Country: Russia   Continent: Europe
URMT METAR Weather: URMT 170330Z 11006MPS 4000 BR OVC003 M05/M06 Q1025 R07/190160 NOSIG RMK QBB090 OBST OBSC QFE728
URMT Flight Activity (FlightAware)

URMT Twr/App/Control
Feed Status: UP   Listeners: 0
Listen in your browser - HTML5 player (in browser, HTML5)
Listen in your browser - requires Flash (in browser, requires Flash)
Click here to listen with your own player (launches your MP3 player)
URMT Twr/App/Control Audio Archives
FacilityFrequency
Stavropol Approach120.300
Stavropol Control118.250
Stavropol Tower120.900

NOTICE

Unauthorized use prohibited. See LiveATC.net Terms of Service


Find LiveATC Audio Streams


Airport/ARTCC Code

Frequency Search
(e.g., 124.400, 128.75)
Site-wide search
 


Browse LiveATC Feeds
Top 50 LiveATC Feeds
Bad Weather Areas

LiveATC FAQ
Offer a LiveATC Feed
Contact LiveATC.net
Press Inquiries

LiveATC on iPhone
LiveATC on Android

Windows Phone
Windows 8/10

LiveATC Mobile
(Mobile browser)

ATC Audio Archives
Interesting Recordings

LiveATC Forums


Home Page
About LiveATC.net
Make a Donation
Terms of Use
Privacy Policy

Canadian Air Freqs

AIRMETs/SIGMETs

FAA Airport Status
Nat'l Airspace Status
Arrival Demand Charts


Server Software By:
Icecast.org
Liquidsoap